createdAt,value
2017-01-15T00:00:07.913Z,0
2017-01-15T00:00:55.720Z,0
2017-01-15T00:01:40.738Z,0
2017-01-15T00:02:25.769Z,0
2017-01-15T00:03:11.796Z,0
2017-01-15T00:03:53.899Z,0
2017-01-15T00:06:17.525Z,0
2017-01-15T00:07:02.320Z,0
2017-01-15T00:07:45.333Z,0
2017-01-15T00:08:27.596Z,0
2017-01-15T00:09:09.608Z,0
2017-01-15T00:09:52.699Z,0
2017-01-15T00:10:35.298Z,0
2017-01-15T00:11:18.300Z,0
2017-01-15T00:12:02.409Z,0
2017-01-15T00:12:44.805Z,0
2017-01-15T00:13:25.279Z,0
2017-01-15T00:15:54.786Z,0
2017-01-15T00:16:46.696Z,0
2017-01-15T00:17:40.735Z,0
2017-01-15T00:18:21.717Z,0
2017-01-15T00:19:04.608Z,0
2017-01-15T00:19:45.099Z,0
2017-01-15T00:20:31.215Z,0
2017-01-15T00:21:14.126Z,0
2017-01-15T00:21:57.452Z,0
2017-01-15T00:22:40.417Z,0
2017-01-15T00:23:22.704Z,0
2017-01-15T00:24:05.142Z,0
2017-01-15T00:24:48.123Z,0
2017-01-15T00:25:31.106Z,0
2017-01-15T00:26:14.203Z,0
2017-01-15T00:26:59.216Z,0
2017-01-15T00:27:39.681Z,0
2017-01-15T00:28:23.617Z,0
2017-01-15T00:29:06.728Z,0
2017-01-15T00:29:52.623Z,0
2017-01-15T00:30:35.046Z,0
2017-01-15T00:31:16.207Z,0
2017-01-15T00:31:56.674Z,0
2017-01-15T00:32:39.108Z,0
2017-01-15T00:33:22.209Z,0
2017-01-15T00:35:36.981Z,0
2017-01-15T00:36:20.280Z,0
2017-01-15T00:37:08.360Z,0
2017-01-15T00:37:50.267Z,0
2017-01-15T00:38:31.674Z,0
2017-01-15T00:39:17.831Z,0
2017-01-15T00:39:58.240Z,0
2017-01-15T00:40:39.612Z,0
2017-01-15T00:41:23.272Z,0
2017-01-15T00:42:07.605Z,0
2017-01-15T00:42:48.787Z,0
2017-01-15T00:43:29.865Z,0
2017-01-15T00:44:11.867Z,0
2017-01-15T00:44:52.313Z,0
2017-01-15T00:45:35.355Z,0
2017-01-15T00:46:18.265Z,0
2017-01-15T00:46:58.779Z,0
2017-01-15T00:47:39.979Z,0
2017-01-15T00:48:23.868Z,0
2017-01-15T00:49:05.787Z,0
2017-01-15T00:49:49.874Z,0
2017-01-15T00:52:11.592Z,0
2017-01-15T00:52:54.949Z,0
2017-01-15T00:55:16.601Z,0
2017-01-15T00:55:57.612Z,0
2017-01-15T00:56:39.910Z,0
2017-01-15T00:57:28.634Z,0
2017-01-15T00:58:11.635Z,0
2017-01-15T00:58:57.623Z,0
2017-01-15T00:59:39.597Z,0
2017-01-15T01:00:21.624Z,0
2017-01-15T01:01:02.607Z,0
2017-01-15T01:01:44.790Z,0
2017-01-15T01:02:28.706Z,0
2017-01-15T01:03:09.910Z,0
2017-01-15T01:03:55.690Z,0
2017-01-15T01:04:36.894Z,0
2017-01-15T01:05:35.643Z,0
2017-01-15T01:06:17.829Z,0
2017-01-15T01:06:59.696Z,0
2017-01-15T01:07:41.646Z,0
2017-01-15T01:08:29.612Z,0
2017-01-15T01:12:20.012Z,0
2017-01-15T01:13:00.792Z,0
2017-01-15T01:13:49.550Z,0
2017-01-15T01:14:31.700Z,0
2017-01-15T01:15:14.031Z,0
2017-01-15T01:15:58.016Z,0
2017-01-15T01:16:39.545Z,0
2017-01-15T01:17:22.620Z,0
2017-01-15T01:18:03.598Z,0
2017-01-15T01:18:47.806Z,0
2017-01-15T01:19:31.655Z,0
2017-01-15T01:20:30.538Z,0
2017-01-15T01:21:16.542Z,0
2017-01-15T01:22:01.586Z,0
2017-01-15T01:22:53.577Z,0
2017-01-15T01:23:40.605Z,0
2017-01-15T01:24:26.555Z,0
2017-01-15T01:26:41.867Z,0
2017-01-15T01:27:22.897Z,0
2017-01-15T01:28:09.716Z,0
2017-01-15T01:28:56.638Z,0
2017-01-15T01:29:38.621Z,0
2017-01-15T01:30:20.883Z,0
2017-01-15T01:31:14.705Z,0
2017-01-15T01:32:01.711Z,0
2017-01-15T01:32:43.667Z,0
2017-01-15T01:33:27.595Z,0
2017-01-15T01:34:10.792Z,0
2017-01-15T01:35:02.682Z,0
2017-01-15T01:37:24.281Z,0
2017-01-15T01:38:04.762Z,0
2017-01-15T01:38:47.013Z,0
2017-01-15T01:39:29.173Z,0
2017-01-15T01:40:09.715Z,0
2017-01-15T01:40:53.689Z,0
2017-01-15T01:41:36.777Z,0
2017-01-15T01:42:17.828Z,0
2017-01-15T01:43:01.791Z,0
2017-01-15T01:43:44.700Z,0
2017-01-15T01:44:26.768Z,0
2017-01-15T01:46:50.352Z,0
2017-01-15T01:47:31.343Z,0
2017-01-15T01:49:51.898Z,0
2017-01-15T01:50:35.615Z,0
2017-01-15T01:51:17.765Z,0
2017-01-15T01:52:01.522Z,0
2017-01-15T01:52:44.725Z,0
2017-01-15T01:53:29.521Z,0
2017-01-15T01:54:13.678Z,0
2017-01-15T01:54:56.529Z,0
2017-01-15T01:55:38.635Z,0
2017-01-15T01:56:19.089Z,0
2017-01-15T01:57:12.110Z,0
2017-01-15T01:58:09.042Z,0
2017-01-15T02:00:46.971Z,0
2017-01-15T02:01:31.931Z,0
2017-01-15T02:02:15.949Z,0
2017-01-15T02:02:56.967Z,0
2017-01-15T02:03:40.984Z,0
2017-01-15T02:04:21.987Z,0
2017-01-15T02:05:14.836Z,0
2017-01-15T02:05:55.295Z,0
2017-01-15T02:06:38.637Z,0
2017-01-15T02:07:21.813Z,0
2017-01-15T02:08:03.834Z,0
2017-01-15T02:08:45.909Z,0
2017-01-15T02:09:28.820Z,0
2017-01-15T02:10:09.810Z,0
2017-01-15T02:10:51.913Z,0
2017-01-15T02:11:34.025Z,0
2017-01-15T02:12:15.825Z,0
2017-01-15T02:12:58.947Z,0
2017-01-15T02:13:42.336Z,0
2017-01-15T02:14:24.327Z,0
2017-01-15T02:15:09.426Z,0
2017-01-15T02:15:53.414Z,0
2017-01-15T02:16:36.408Z,0
2017-01-15T02:17:17.406Z,0
2017-01-15T02:18:01.439Z,0
2017-01-15T02:18:44.387Z,0
2017-01-15T02:19:28.393Z,0
2017-01-15T02:20:13.402Z,0
2017-01-15T02:20:56.518Z,0
2017-01-15T02:21:38.937Z,0
2017-01-15T02:22:20.136Z,0
2017-01-15T02:23:02.559Z,0
2017-01-15T02:23:45.732Z,0
2017-01-15T02:24:28.812Z,0
2017-01-15T02:25:10.825Z,0
2017-01-15T02:25:51.318Z,0
2017-01-15T02:26:33.393Z,0
2017-01-15T02:27:13.901Z,0
2017-01-15T02:27:55.135Z,0
2017-01-15T02:28:35.609Z,0
2017-01-15T02:29:19.310Z,0
2017-01-15T02:30:02.422Z,0
2017-01-15T02:30:42.953Z,0
2017-01-15T02:31:24.917Z,0
2017-01-15T02:32:07.844Z,0
2017-01-15T02:32:50.815Z,0
2017-01-15T02:33:35.833Z,0
2017-01-15T02:34:18.849Z,0
2017-01-15T02:35:01.925Z,0
2017-01-15T02:35:42.359Z,0
2017-01-15T02:36:25.498Z,0
2017-01-15T02:37:09.418Z,0
2017-01-15T02:37:49.938Z,0
2017-01-15T02:38:30.902Z,0
2017-01-15T02:39:14.015Z,0
2017-01-15T02:39:56.492Z,0
2017-01-15T02:40:37.494Z,0
2017-01-15T02:41:22.324Z,0
2017-01-15T02:42:04.503Z,0
2017-01-15T02:42:45.923Z,0
2017-01-15T02:43:33.909Z,0
2017-01-15T02:44:14.394Z,0
2017-01-15T02:45:01.303Z,0
2017-01-15T02:45:46.330Z,0
2017-01-15T02:46:31.337Z,0
2017-01-15T02:47:15.430Z,0
2017-01-15T02:47:56.487Z,0
2017-01-15T02:48:44.835Z,0
2017-01-15T02:49:27.964Z,0
2017-01-15T02:50:11.809Z,0
2017-01-15T02:50:53.990Z,0
2017-01-15T02:51:35.225Z,0
2017-01-15T02:52:20.439Z,0
2017-01-15T02:53:02.187Z,0
2017-01-15T02:53:43.646Z,0
2017-01-15T02:54:29.819Z,0
2017-01-15T02:55:15.115Z,0
2017-01-15T02:55:58.887Z,0
2017-01-15T02:56:47.984Z,0
2017-01-15T02:57:29.137Z,0
2017-01-15T02:58:12.907Z,0
2017-01-15T02:58:53.400Z,0
2017-01-15T02:59:37.399Z,0
2017-01-15T03:00:28.382Z,0
2017-01-15T03:01:13.434Z,0
2017-01-15T03:01:55.668Z,0
2017-01-15T03:02:50.847Z,0
2017-01-15T03:03:39.833Z,0
2017-01-15T03:04:22.202Z,0
2017-01-15T03:05:10.829Z,0
2017-01-15T03:05:53.819Z,0
2017-01-15T03:06:37.925Z,0
2017-01-15T03:07:34.942Z,0
2017-01-15T03:08:17.221Z,0
2017-01-15T03:08:58.613Z,0
2017-01-15T03:09:45.325Z,0
2017-01-15T03:10:28.649Z,0
2017-01-15T03:11:22.529Z,0
2017-01-15T03:12:05.758Z,0
2017-01-15T03:12:48.184Z,0
2017-01-15T03:13:31.813Z,0
2017-01-15T03:14:13.835Z,0
2017-01-15T03:15:00.924Z,0
2017-01-15T03:15:52.146Z,0
2017-01-15T03:16:37.483Z,0
2017-01-15T03:17:26.320Z,0
2017-01-15T03:18:10.427Z,0
2017-01-15T03:18:57.318Z,0
2017-01-15T03:19:50.331Z,0
2017-01-15T03:20:32.459Z,0
2017-01-15T03:21:15.489Z,0
2017-01-15T03:22:01.322Z,0
2017-01-15T03:22:44.390Z,0
2017-01-15T03:23:28.396Z,0
2017-01-15T03:25:51.328Z,0
2017-01-15T03:26:36.014Z,0
2017-01-15T03:27:26.988Z,0
2017-01-15T03:28:14.991Z,0
2017-01-15T03:28:57.456Z,0
2017-01-15T03:29:45.510Z,0
2017-01-15T03:30:27.832Z,0
2017-01-15T03:31:11.093Z,0
2017-01-15T03:31:53.008Z,0
2017-01-15T03:32:39.006Z,0
2017-01-15T03:33:24.171Z,0
2017-01-15T03:34:06.007Z,0
2017-01-15T03:34:48.000Z,0
2017-01-15T03:37:34.097Z,0
2017-01-15T03:38:33.081Z,0
2017-01-15T03:39:17.076Z,0
2017-01-15T03:40:06.059Z,0
2017-01-15T03:40:48.154Z,0
2017-01-15T03:41:29.232Z,0
2017-01-15T03:42:10.451Z,0
2017-01-15T03:42:52.239Z,0
2017-01-15T03:43:33.399Z,0
2017-01-15T03:44:24.067Z,0
2017-01-15T03:45:11.066Z,0
2017-01-15T03:45:55.214Z,0
2017-01-15T03:46:36.381Z,0
2017-01-15T03:47:16.848Z,0
2017-01-15T03:47:57.962Z,0
2017-01-15T03:48:39.162Z,0
2017-01-15T03:49:20.579Z,0
2017-01-15T03:50:03.590Z,0
2017-01-15T03:50:49.561Z,0
2017-01-15T03:53:29.909Z,0
2017-01-15T03:54:10.384Z,0
2017-01-15T03:54:54.462Z,0
2017-01-15T03:55:35.701Z,0
2017-01-15T03:56:18.394Z,0
2017-01-15T03:57:01.476Z,0
2017-01-15T03:57:46.551Z,0
2017-01-15T03:58:29.563Z,0
2017-01-15T03:59:15.508Z,0
2017-01-15T03:59:59.413Z,0
2017-01-15T04:00:44.406Z,0
2017-01-15T04:01:27.407Z,0
2017-01-15T04:02:08.495Z,0
2017-01-15T04:02:53.384Z,0
2017-01-15T04:03:34.795Z,0
2017-01-15T04:04:16.983Z,0
2017-01-15T04:04:57.460Z,0
2017-01-15T04:05:43.465Z,0
2017-01-15T04:06:26.625Z,0
2017-01-15T04:07:18.403Z,0
2017-01-15T04:08:00.557Z,0
2017-01-15T04:08:49.401Z,0
2017-01-15T04:09:42.572Z,0
2017-01-15T04:10:24.395Z,0
2017-01-15T04:11:04.879Z,0
2017-01-15T04:15:18.352Z,0
2017-01-15T04:16:06.290Z,0
2017-01-15T04:16:49.284Z,0
2017-01-15T04:17:30.456Z,0
2017-01-15T04:18:18.386Z,0
2017-01-15T04:18:58.958Z,0
2017-01-15T04:19:39.417Z,0
2017-01-15T04:20:22.444Z,0
2017-01-15T04:21:04.297Z,0
2017-01-15T04:21:47.426Z,0
2017-01-15T04:22:29.806Z,0
2017-01-15T04:23:15.783Z,0
2017-01-15T04:23:57.777Z,0
2017-01-15T04:24:45.859Z,0
2017-01-15T04:25:27.118Z,0
2017-01-15T04:26:09.087Z,0
2017-01-15T04:26:52.795Z,0
2017-01-15T04:27:33.982Z,0
2017-01-15T04:28:17.793Z,0
2017-01-15T04:29:04.791Z,0
2017-01-15T04:29:45.253Z,0
2017-01-15T04:30:28.307Z,0
2017-01-15T04:31:10.438Z,0
2017-01-15T04:31:51.681Z,0
2017-01-15T04:32:33.084Z,0
2017-01-15T04:33:18.844Z,0
2017-01-15T04:33:59.267Z,0
2017-01-15T04:34:39.738Z,0
2017-01-15T04:35:29.823Z,0
2017-01-15T04:36:14.766Z,0
2017-01-15T04:36:58.931Z,0
2017-01-15T04:37:40.369Z,0
2017-01-15T04:38:23.793Z,0
2017-01-15T04:39:11.843Z,0
2017-01-15T04:39:53.161Z,0
2017-01-15T04:40:38.146Z,0
2017-01-15T04:41:19.893Z,0
2017-01-15T04:42:04.825Z,0
2017-01-15T04:42:47.772Z,0
2017-01-15T04:43:31.876Z,0
2017-01-15T04:44:20.773Z,0
2017-01-15T04:45:07.043Z,0
2017-01-15T04:45:50.906Z,0
2017-01-15T04:46:34.368Z,0
2017-01-15T04:47:19.270Z,0
2017-01-15T04:48:00.761Z,0
2017-01-15T04:48:42.068Z,0
2017-01-15T04:49:22.620Z,0
2017-01-15T04:50:04.380Z,0
2017-01-15T04:50:46.467Z,0
2017-01-15T04:51:29.887Z,0
2017-01-15T04:52:10.381Z,0
2017-01-15T04:52:55.374Z,0
2017-01-15T04:53:36.471Z,0
2017-01-15T04:54:18.552Z,0
2017-01-15T04:55:03.385Z,0
2017-01-15T04:55:43.883Z,0
2017-01-15T04:56:25.205Z,0
2017-01-15T04:57:14.275Z,0
2017-01-15T04:58:02.490Z,0
2017-01-15T04:58:42.959Z,0
2017-01-15T04:59:26.764Z,0
2017-01-15T05:00:08.126Z,0
2017-01-15T05:00:49.431Z,0
2017-01-15T05:01:46.398Z,0
2017-01-15T05:02:30.291Z,0
2017-01-15T05:03:13.343Z,0
2017-01-15T05:03:54.376Z,0
2017-01-15T05:04:39.287Z,0
2017-01-15T05:05:22.264Z,0
2017-01-15T05:06:14.358Z,0
2017-01-15T05:06:54.890Z,0
2017-01-15T05:07:38.767Z,0
2017-01-15T05:08:19.293Z,0
2017-01-15T05:09:06.294Z,0
2017-01-15T05:14:22.991Z,0
2017-01-15T05:15:04.740Z,0
2017-01-15T05:15:50.556Z,0
2017-01-15T05:16:34.651Z,0
2017-01-15T05:17:22.583Z,0
2017-01-15T06:11:22.638Z,0
2017-01-15T06:12:05.540Z,0
2017-01-15T06:12:47.542Z,0
2017-01-15T06:13:28.635Z,0
2017-01-15T06:14:11.521Z,0
2017-01-15T06:14:52.543Z,0
2017-01-15T06:15:34.607Z,0
2017-01-15T06:16:16.541Z,0
2017-01-15T06:17:02.530Z,0
2017-01-15T06:17:50.529Z,0
2017-01-15T06:18:30.999Z,0
2017-01-15T06:19:15.040Z,0
2017-01-15T06:20:00.033Z,0
2017-01-15T06:28:52.097Z,0
2017-01-15T06:29:35.535Z,0
2017-01-15T06:30:16.926Z,0
2017-01-15T06:30:57.387Z,0
2017-01-15T06:31:39.705Z,0
2017-01-15T06:32:20.162Z,0
2017-01-15T06:33:01.504Z,0
2017-01-15T06:33:48.124Z,0
2017-01-15T06:40:40.762Z,0
2017-01-15T06:41:22.678Z,0
2017-01-15T06:42:05.616Z,0
2017-01-15T06:43:02.608Z,0
2017-01-15T06:43:43.093Z,0
2017-01-15T06:44:25.127Z,0
2017-01-15T06:45:08.324Z,0
2017-01-15T06:47:48.662Z,0
2017-01-15T06:48:29.802Z,0
2017-01-15T06:49:10.912Z,0
2017-01-15T06:49:56.769Z,0
2017-01-15T06:50:38.222Z,0
2017-01-15T06:51:21.181Z,0
2017-01-15T06:52:11.228Z,0
2017-01-15T06:52:58.135Z,0
2017-01-15T06:53:56.119Z,0
2017-01-15T06:54:39.210Z,0
2017-01-15T06:55:20.392Z,0
2017-01-15T06:56:03.775Z,0
2017-01-15T06:56:45.893Z,0
2017-01-15T06:57:29.768Z,0
2017-01-15T06:58:12.178Z,0
2017-01-15T06:58:59.190Z,0
2017-01-15T06:59:50.235Z,0
2017-01-15T07:00:36.131Z,0
2017-01-15T07:01:16.627Z,0
2017-01-15T07:02:00.800Z,0
2017-01-15T07:03:05.731Z,0
2017-01-15T07:03:48.626Z,0
2017-01-15T07:04:41.018Z,0
2017-01-15T07:08:59.098Z,0
2017-01-15T07:09:39.411Z,0
2017-01-15T07:10:23.512Z,0
2017-01-15T07:11:03.990Z,0
2017-01-15T07:11:45.919Z,0
2017-01-15T07:12:27.043Z,0
2017-01-15T07:13:10.322Z,0
2017-01-15T07:13:50.835Z,0
2017-01-15T07:14:35.028Z,0
2017-01-15T07:15:21.845Z,0
2017-01-15T07:16:03.011Z,0
2017-01-15T07:16:46.044Z,0
2017-01-15T07:17:41.952Z,0
2017-01-15T07:18:25.028Z,0
2017-01-15T07:19:16.858Z,0
2017-01-15T07:20:02.938Z,0
2017-01-15T07:20:45.961Z,0
2017-01-15T07:21:30.033Z,0
2017-01-15T07:22:18.983Z,0
2017-01-15T07:23:00.076Z,0
2017-01-15T07:23:44.004Z,0
2017-01-15T07:24:26.847Z,0
2017-01-15T07:25:08.017Z,0
2017-01-15T07:25:51.940Z,0
2017-01-15T07:26:33.980Z,0
2017-01-15T07:27:17.014Z,0
2017-01-15T07:28:02.828Z,5
2017-01-15T07:28:45.016Z,5
2017-01-15T07:29:28.330Z,5
2017-01-15T07:30:11.347Z,5
2017-01-15T07:31:11.342Z,5
2017-01-15T07:32:00.557Z,5
2017-01-15T07:32:51.441Z,5
2017-01-15T07:33:32.516Z,5
2017-01-15T07:34:16.361Z,5
2017-01-15T07:35:05.435Z,5
2017-01-15T07:37:40.102Z,10
2017-01-15T07:38:20.434Z,10
2017-01-15T07:39:01.443Z,10
2017-01-15T07:39:41.944Z,10
2017-01-15T07:40:24.141Z,10
2017-01-15T07:42:42.702Z,10
2017-01-15T07:43:23.222Z,10
2017-01-15T07:44:05.542Z,15
2017-01-15T07:44:48.731Z,15
2017-01-15T07:45:30.086Z,15
2017-01-15T07:46:26.718Z,15
2017-01-15T07:47:12.701Z,15
2017-01-15T07:48:01.739Z,15
2017-01-15T07:48:44.191Z,15
2017-01-15T07:49:27.300Z,15
2017-01-15T07:50:08.574Z,20
2017-01-15T07:50:51.722Z,20
2017-01-15T07:51:32.175Z,20
2017-01-15T07:52:13.624Z,20
2017-01-15T07:52:55.404Z,20
2017-01-15T07:53:36.730Z,20
2017-01-15T07:54:20.799Z,20
2017-01-15T07:55:01.781Z,20
2017-01-15T07:55:46.807Z,20
2017-01-15T07:56:28.701Z,25
2017-01-15T07:57:11.084Z,25
2017-01-15T07:57:55.710Z,25
2017-01-15T07:58:38.714Z,25
2017-01-15T07:59:23.806Z,25
2017-01-15T08:00:23.729Z,25
2017-01-15T08:01:13.832Z,25
2017-01-15T08:01:54.898Z,30
2017-01-15T08:02:40.205Z,30
2017-01-15T08:03:21.657Z,30
2017-01-15T08:04:09.713Z,30
2017-01-15T08:05:02.698Z,30
2017-01-15T08:05:45.036Z,30
2017-01-15T08:06:26.295Z,30
2017-01-15T08:07:13.206Z,35
2017-01-15T08:07:56.396Z,35
2017-01-15T08:08:40.214Z,35
2017-01-15T08:09:35.311Z,35
2017-01-15T08:10:18.218Z,35
2017-01-15T08:11:01.193Z,35
2017-01-15T08:13:34.471Z,40
2017-01-15T08:14:17.359Z,40
2017-01-15T08:14:59.441Z,40
2017-01-15T08:15:39.932Z,40
2017-01-15T08:16:21.273Z,40
2017-01-15T08:17:03.784Z,45
2017-01-15T08:17:45.301Z,45
2017-01-15T08:18:28.450Z,45
2017-01-15T08:19:15.362Z,45
2017-01-15T08:19:55.865Z,45
2017-01-15T08:20:36.327Z,45
2017-01-15T08:21:17.452Z,50
2017-01-15T08:21:59.467Z,50
2017-01-15T08:22:42.570Z,55
2017-01-15T08:23:27.350Z,55
2017-01-15T08:24:17.342Z,55
2017-01-15T08:25:01.445Z,55
2017-01-15T08:25:42.849Z,55
2017-01-15T08:26:28.868Z,55
2017-01-15T08:27:16.863Z,60
2017-01-15T08:28:05.941Z,60
2017-01-15T08:28:46.421Z,60
2017-01-15T08:29:42.437Z,60
2017-01-15T08:30:36.371Z,60
2017-01-15T08:31:19.347Z,60
2017-01-15T08:32:00.346Z,60
2017-01-15T08:32:46.367Z,65
2017-01-15T08:33:28.540Z,65
2017-01-15T08:35:42.106Z,65
2017-01-15T08:36:24.111Z,65
2017-01-15T08:38:40.972Z,70
2017-01-15T08:39:21.670Z,70
2017-01-15T08:40:10.692Z,70
2017-01-15T08:40:53.722Z,70
2017-01-15T08:41:37.297Z,70
2017-01-15T08:42:28.202Z,70
2017-01-15T08:43:11.303Z,70
2017-01-15T08:44:07.215Z,75
2017-01-15T08:44:52.248Z,75
2017-01-15T08:45:56.292Z,75
2017-01-15T08:46:39.727Z,75
2017-01-15T08:47:25.367Z,75
2017-01-15T08:48:11.175Z,75
2017-01-15T08:48:55.455Z,75
2017-01-15T08:49:39.282Z,75
2017-01-15T08:50:22.466Z,80
2017-01-15T08:52:38.276Z,80
2017-01-15T08:53:21.231Z,80
2017-01-15T08:54:02.603Z,80
2017-01-15T08:54:44.595Z,80
2017-01-15T08:55:25.036Z,80
2017-01-15T08:56:06.082Z,80
2017-01-15T08:56:50.208Z,85
2017-01-15T08:57:43.085Z,85
2017-01-15T08:58:25.066Z,85
2017-01-15T09:01:07.225Z,85
2017-01-15T09:01:52.110Z,85
2017-01-15T09:02:34.437Z,85
2017-01-15T09:03:18.023Z,85
2017-01-15T09:04:01.136Z,90
2017-01-15T09:04:48.273Z,90
2017-01-15T09:05:30.525Z,90
2017-01-15T09:06:13.666Z,90
2017-01-15T09:06:59.521Z,90
2017-01-15T09:07:51.601Z,90
2017-01-15T09:08:32.128Z,90
2017-01-15T09:09:16.011Z,90
2017-01-15T09:09:57.309Z,90
2017-01-15T09:10:38.717Z,90
2017-01-15T09:11:19.897Z,90
2017-01-15T09:12:01.183Z,90
2017-01-15T09:12:41.681Z,95
2017-01-15T09:13:22.840Z,95
2017-01-15T09:14:05.316Z,95
2017-01-15T09:14:49.036Z,95
2017-01-15T09:15:30.345Z,95
2017-01-15T09:16:13.520Z,95
2017-01-15T09:16:53.976Z,95
2017-01-15T09:17:38.228Z,95
2017-01-15T09:18:23.017Z,95
2017-01-15T09:20:53.282Z,95
2017-01-15T09:21:34.690Z,95
2017-01-15T09:22:15.690Z,100
2017-01-15T09:22:56.818Z,100
2017-01-15T09:23:39.956Z,100
2017-01-15T09:24:22.797Z,100
2017-01-15T09:25:03.820Z,100
2017-01-15T09:25:44.793Z,100
2017-01-15T09:26:27.176Z,100
2017-01-15T09:27:11.291Z,100
2017-01-15T09:29:25.030Z,100
2017-01-15T09:31:39.025Z,100
2017-01-15T09:32:26.600Z,100
2017-01-15T09:42:47.421Z,100
2017-01-15T09:43:28.305Z,100
2017-01-15T09:44:09.387Z,100
2017-01-15T09:44:59.522Z,105
2017-01-15T09:45:42.335Z,105
2017-01-15T09:46:25.745Z,105
2017-01-15T09:47:06.807Z,105
2017-01-15T09:47:47.270Z,105
2017-01-15T09:48:29.223Z,105
2017-01-15T09:53:55.734Z,105
2017-01-15T09:54:36.991Z,105
2017-01-15T09:57:08.100Z,105
2017-01-15T09:57:53.083Z,105
2017-01-15T09:58:39.093Z,105
2017-01-15T09:59:28.093Z,105
2017-01-15T10:00:10.174Z,110
2017-01-15T10:00:58.138Z,110
2017-01-15T10:01:43.175Z,110
2017-01-15T10:02:27.093Z,110
2017-01-15T10:03:11.110Z,110
2017-01-15T10:03:58.099Z,110
2017-01-15T10:04:44.098Z,110
2017-01-15T10:05:27.234Z,110
2017-01-15T10:17:19.817Z,115
2017-01-15T10:18:06.885Z,115
2017-01-15T10:18:55.814Z,115
2017-01-15T10:19:38.809Z,115
2017-01-15T10:20:27.811Z,115
2017-01-15T10:21:12.807Z,115
2017-01-15T10:26:47.521Z,115
2017-01-15T10:27:30.311Z,115
2017-01-15T10:29:49.403Z,115
2017-01-15T10:30:42.403Z,115
2017-01-15T10:31:35.524Z,115
2017-01-15T10:32:20.436Z,115
2017-01-15T10:33:10.428Z,115
2017-01-15T10:33:55.409Z,115
2017-01-15T10:34:38.419Z,115
2017-01-15T10:35:34.629Z,115
2017-01-15T10:36:23.027Z,115
2017-01-15T10:37:09.008Z,115
2017-01-15T10:37:56.045Z,115
2017-01-15T10:38:45.040Z,115
2017-01-15T10:39:49.909Z,115
2017-01-15T10:40:33.903Z,115
2017-01-15T10:41:18.231Z,115
2017-01-15T10:42:06.899Z,115
2017-01-15T10:44:50.437Z,115
2017-01-15T10:45:36.533Z,115
2017-01-15T10:46:23.538Z,115
2017-01-15T10:48:42.226Z,115
2017-01-15T10:49:32.126Z,115
2017-01-15T10:50:18.127Z,120
2017-01-15T10:51:04.281Z,120
2017-01-15T10:51:51.693Z,120
2017-01-15T10:52:32.986Z,120
2017-01-15T10:53:17.194Z,120
2017-01-15T10:54:01.214Z,120
2017-01-15T10:54:47.114Z,120
2017-01-15T10:57:07.708Z,125
2017-01-15T11:04:22.895Z,130
2017-01-15T11:05:09.697Z,130
2017-01-15T11:05:50.905Z,130
2017-01-15T11:08:46.680Z,135
2017-01-15T11:09:27.114Z,135
2017-01-15T11:10:08.975Z,135
2017-01-15T11:10:52.024Z,135
2017-01-15T11:13:36.939Z,140
2017-01-15T11:14:21.031Z,140
2017-01-15T11:15:02.105Z,140
2017-01-15T11:15:42.561Z,140
2017-01-15T11:16:23.070Z,145
2017-01-15T11:17:15.958Z,145
2017-01-15T11:17:57.231Z,145
2017-01-15T11:18:43.151Z,145
2017-01-15T11:19:30.983Z,145
2017-01-15T11:23:19.324Z,150
2017-01-15T11:24:02.144Z,150
2017-01-15T11:24:43.218Z,150
2017-01-15T11:25:25.142Z,150
2017-01-15T11:26:09.224Z,150
2017-01-15T11:26:52.152Z,150
2017-01-15T11:27:37.526Z,150
2017-01-15T11:28:21.480Z,150
2017-01-15T11:29:03.716Z,150
2017-01-15T11:29:48.714Z,155
2017-01-15T11:32:35.786Z,155
2017-01-15T11:33:21.724Z,160
2017-01-15T11:34:02.688Z,160
2017-01-15T11:34:46.665Z,160
2017-01-15T11:35:27.665Z,160
2017-01-15T11:36:15.761Z,165
2017-01-15T11:36:58.687Z,165
2017-01-15T11:37:43.659Z,165
2017-01-15T11:38:27.774Z,165
2017-01-15T11:39:14.662Z,165
2017-01-15T11:39:59.010Z,165
2017-01-15T11:40:40.265Z,165
2017-01-15T11:41:20.727Z,165
2017-01-15T11:42:04.675Z,170
2017-01-15T11:42:45.904Z,170
2017-01-15T11:43:28.850Z,170
2017-01-15T11:44:13.773Z,170
2017-01-15T11:44:54.242Z,170
2017-01-15T11:45:37.250Z,170
2017-01-15T11:46:32.184Z,170
2017-01-15T11:47:16.159Z,170
2017-01-15T11:47:59.167Z,170
2017-01-15T11:48:41.458Z,170
2017-01-15T11:49:29.256Z,170
2017-01-15T11:50:14.685Z,170
2017-01-15T11:50:58.750Z,170
2017-01-15T11:51:40.206Z,170
2017-01-15T11:54:26.930Z,170
2017-01-15T11:55:08.815Z,170
2017-01-15T11:55:50.834Z,175
2017-01-15T11:56:34.751Z,170
2017-01-15T11:57:20.734Z,175
2017-01-15T11:58:04.194Z,175
2017-01-15T11:58:46.237Z,175
2017-01-15T11:59:28.537Z,175
2017-01-15T12:00:10.548Z,175
2017-01-15T12:00:58.244Z,175
2017-01-15T12:01:39.520Z,175
2017-01-15T12:02:20.030Z,175
2017-01-15T12:03:02.757Z,175
2017-01-15T12:03:44.731Z,175
2017-01-15T12:04:26.070Z,175
2017-01-15T12:05:06.584Z,175
2017-01-15T12:05:48.756Z,175
2017-01-15T12:06:30.040Z,180
2017-01-15T12:07:11.034Z,175
2017-01-15T12:07:52.232Z,175
2017-01-15T12:08:34.429Z,175
2017-01-15T12:09:19.381Z,175
2017-01-15T12:10:00.751Z,175
2017-01-15T12:10:42.159Z,175
2017-01-15T12:11:23.266Z,175
2017-01-15T12:12:07.359Z,175
2017-01-15T12:12:51.242Z,175
2017-01-15T12:13:37.259Z,175
2017-01-15T12:14:17.748Z,175
2017-01-15T12:15:03.839Z,175
2017-01-15T12:15:46.927Z,175
2017-01-15T12:16:37.762Z,175
2017-01-15T12:17:19.738Z,175
2017-01-15T12:18:11.841Z,175
2017-01-15T12:18:56.793Z,175
2017-01-15T12:19:40.741Z,175
2017-01-15T12:20:22.974Z,175
2017-01-15T12:21:14.750Z,175
2017-01-15T12:21:58.750Z,175
2017-01-15T12:22:43.732Z,175
2017-01-15T12:23:28.730Z,175
2017-01-15T12:24:11.729Z,175
2017-01-15T12:24:56.739Z,175
2017-01-15T12:27:23.982Z,170
2017-01-15T12:28:06.828Z,170
2017-01-15T12:28:53.859Z,170
2017-01-15T12:29:50.835Z,170
2017-01-15T12:30:33.827Z,170
2017-01-15T12:31:21.823Z,170
2017-01-15T12:32:18.128Z,170
2017-01-15T12:33:03.421Z,170
2017-01-15T12:33:46.763Z,170
2017-01-15T12:34:28.007Z,170
2017-01-15T12:35:13.830Z,170
2017-01-15T12:36:01.910Z,170
2017-01-15T12:36:44.133Z,170
2017-01-15T12:37:34.814Z,170
2017-01-15T12:38:31.908Z,170
2017-01-15T12:39:13.924Z,170
2017-01-15T12:40:01.827Z,170
2017-01-15T12:40:43.248Z,170
2017-01-15T12:41:27.832Z,170
2017-01-15T12:42:17.845Z,170
2017-01-15T12:43:00.335Z,170
2017-01-15T12:43:44.408Z,170
2017-01-15T12:44:28.321Z,170
2017-01-15T12:45:12.446Z,170
2017-01-15T12:45:54.428Z,170
2017-01-15T12:46:35.641Z,165
2017-01-15T12:47:20.461Z,170
2017-01-15T12:48:02.504Z,165
2017-01-15T12:48:43.753Z,165
2017-01-15T12:49:25.816Z,165
2017-01-15T12:50:16.855Z,165
2017-01-15T12:51:15.951Z,165
2017-01-15T12:52:01.849Z,165
2017-01-15T12:52:43.844Z,165
2017-01-15T12:53:25.826Z,165
2017-01-15T12:54:06.362Z,165
2017-01-15T12:56:37.444Z,165
2017-01-15T12:57:20.116Z,160
2017-01-15T12:58:08.038Z,160
2017-01-15T12:58:49.452Z,160
2017-01-15T12:59:37.039Z,160
2017-01-15T13:00:19.113Z,160
2017-01-15T13:01:11.041Z,160
2017-01-15T13:01:51.535Z,160
2017-01-15T13:02:34.912Z,160
2017-01-15T13:03:20.518Z,160
2017-01-15T13:05:34.740Z,160
2017-01-15T13:06:20.743Z,160
2017-01-15T13:07:02.720Z,160
2017-01-15T13:07:51.664Z,160
2017-01-15T13:08:39.635Z,160
2017-01-15T13:11:01.474Z,155
2017-01-15T13:11:44.300Z,155
2017-01-15T13:12:27.210Z,155
2017-01-15T13:13:08.621Z,155
2017-01-15T13:15:46.560Z,150
2017-01-15T13:16:28.055Z,150
2017-01-15T13:17:18.970Z,150
2017-01-15T13:18:03.956Z,150
2017-01-15T13:18:47.264Z,150
2017-01-15T13:19:28.441Z,145
2017-01-15T13:21:46.146Z,145
2017-01-15T13:22:26.623Z,145
2017-01-15T13:23:07.891Z,145
2017-01-15T13:23:49.239Z,145
2017-01-15T13:24:30.545Z,145
2017-01-15T13:25:12.539Z,140
2017-01-15T13:25:54.612Z,140
2017-01-15T13:26:35.131Z,140
2017-01-15T13:27:20.049Z,140
2017-01-15T13:28:05.030Z,140
2017-01-15T13:28:53.131Z,140
2017-01-15T13:29:33.619Z,140
2017-01-15T13:30:16.739Z,135
2017-01-15T13:31:02.522Z,135
2017-01-15T13:31:43.018Z,135
2017-01-15T13:32:28.027Z,135
2017-01-15T13:33:09.420Z,135
2017-01-15T13:33:50.714Z,135
2017-01-15T13:34:32.727Z,135
2017-01-15T13:35:13.916Z,135
2017-01-15T13:35:57.613Z,135
2017-01-15T13:36:39.520Z,130
2017-01-15T13:37:21.054Z,130
2017-01-15T13:38:07.038Z,130
2017-01-15T13:38:48.117Z,130
2017-01-15T13:39:32.028Z,130
2017-01-15T13:40:17.159Z,130
2017-01-15T13:41:00.324Z,130
2017-01-15T13:41:45.036Z,130
2017-01-15T13:42:26.129Z,125
2017-01-15T13:43:07.109Z,125
2017-01-15T13:43:47.607Z,130
2017-01-15T13:44:34.529Z,125
2017-01-15T13:45:23.521Z,125